sensor_id;sensor_type;location;lat;lon;timestamp;P1;durP1;ratioP1;P2;durP2;ratioP2
47737;SDS011;33502;47.182;27.506;2023-03-01T00:02:04;29.67;;;15.38;;
47737;SDS011;33502;47.182;27.506;2023-03-01T00:04:30;34.55;;;15.13;;
47737;SDS011;33502;47.182;27.506;2023-03-01T00:06:56;35.67;;;15.93;;
47737;SDS011;33502;47.182;27.506;2023-03-01T00:09:22;30.85;;;15.50;;
47737;SDS011;33502;47.182;27.506;2023-03-01T00:11:48;31.88;;;16.08;;
47737;SDS011;33502;47.182;27.506;2023-03-01T00:14:14;31.88;;;15.35;;
47737;SDS011;33502;47.182;27.506;2023-03-01T00:16:42;34.35;;;15.77;;
47737;SDS011;33502;47.182;27.506;2023-03-01T00:19:13;33.92;;;15.35;;
47737;SDS011;33502;47.182;27.506;2023-03-01T00:21:41;31.48;;;14.98;;
47737;SDS011;33502;47.182;27.506;2023-03-01T00:24:07;29.48;;;15.25;;
47737;SDS011;33502;47.182;27.506;2023-03-01T00:26:34;31.38;;;16.10;;
47737;SDS011;33502;47.182;27.506;2023-03-01T00:29:00;30.95;;;14.80;;
47737;SDS011;33502;47.182;27.506;2023-03-01T00:31:27;29.38;;;16.35;;
47737;SDS011;33502;47.182;27.506;2023-03-01T00:33:55;33.40;;;14.38;;
47737;SDS011;33502;47.182;27.506;2023-03-01T00:36:23;29.05;;;15.00;;
47737;SDS011;33502;47.182;27.506;2023-03-01T00:38:50;31.58;;;14.27;;
47737;SDS011;33502;47.182;27.506;2023-03-01T00:41:16;33.15;;;14.70;;
47737;SDS011;33502;47.182;27.506;2023-03-01T00:43:44;30.35;;;15.18;;
47737;SDS011;33502;47.182;27.506;2023-03-01T00:46:14;29.92;;;14.85;;
47737;SDS011;33502;47.182;27.506;2023-03-01T00:48:45;29.92;;;13.40;;
47737;SDS011;33502;47.182;27.506;2023-03-01T00:51:15;29.08;;;14.90;;
47737;SDS011;33502;47.182;27.506;2023-03-01T00:53:46;28.77;;;13.98;;
47737;SDS011;33502;47.182;27.506;2023-03-01T00:56:15;29.33;;;14.50;;
47737;SDS011;33502;47.182;27.506;2023-03-01T00:58:42;31.08;;;16.02;;
47737;SDS011;33502;47.182;27.506;2023-03-01T01:01:09;27.52;;;13.82;;
47737;SDS011;33502;47.182;27.506;2023-03-01T01:06:15;30.60;;;14.00;;
47737;SDS011;33502;47.182;27.506;2023-03-01T01:08:45;28.67;;;13.93;;
47737;SDS011;33502;47.182;27.506;2023-03-01T01:11:11;29.02;;;13.00;;
47737;SDS011;33502;47.182;27.506;2023-03-01T01:13:38;27.73;;;14.15;;
47737;SDS011;33502;47.182;27.506;2023-03-01T01:16:06;30.90;;;14.35;;
47737;SDS011;33502;47.182;27.506;2023-03-01T01:18:33;29.38;;;13.98;;
47737;SDS011;33502;47.182;27.506;2023-03-01T01:21:10;25.20;;;13.25;;
47737;SDS011;33502;47.182;27.506;2023-03-01T01:23:38;33.05;;;13.85;;
47737;SDS011;33502;47.182;27.506;2023-03-01T01:26:12;30.77;;;14.45;;
47737;SDS011;33502;47.182;27.506;2023-03-01T01:28:40;26.75;;;14.23;;
47737;SDS011;33502;47.182;27.506;2023-03-01T01:31:06;28.77;;;14.20;;
47737;SDS011;33502;47.182;27.506;2023-03-01T01:33:32;27.52;;;14.15;;
47737;SDS011;33502;47.182;27.506;2023-03-01T01:35:58;32.15;;;15.27;;
47737;SDS011;33502;47.182;27.506;2023-03-01T01:38:24;26.88;;;14.30;;
47737;SDS011;33502;47.182;27.506;2023-03-01T01:40:50;28.58;;;13.68;;
47737;SDS011;33502;47.182;27.506;2023-03-01T01:43:21;30.00;;;14.93;;
47737;SDS011;33502;47.182;27.506;2023-03-01T01:48:20;27.17;;;13.98;;
47737;SDS011;33502;47.182;27.506;2023-03-01T01:50:57;31.20;;;13.85;;
47737;SDS011;33502;47.182;27.506;2023-03-01T01:53:26;36.70;;;14.73;;
47737;SDS011;33502;47.182;27.506;2023-03-01T01:55:53;41.20;;;17.75;;
47737;SDS011;33502;47.182;27.506;2023-03-01T01:58:25;35.45;;;17.67;;
47737;SDS011;33502;47.182;27.506;2023-03-01T02:00:52;42.25;;;19.25;;
47737;SDS011;33502;47.182;27.506;2023-03-01T02:03:29;41.83;;;16.80;;
47737;SDS011;33502;47.182;27.506;2023-03-01T02:08:52;40.22;;;18.27;;
47737;SDS011;33502;47.182;27.506;2023-03-01T02:11:18;37.63;;;17.33;;
47737;SDS011;33502;47.182;27.506;2023-03-01T02:13:47;32.03;;;15.80;;
47737;SDS011;33502;47.182;27.506;2023-03-01T02:16:15;33.60;;;15.45;;
47737;SDS011;33502;47.182;27.506;2023-03-01T02:18:41;30.42;;;16.00;;
47737;SDS011;33502;47.182;27.506;2023-03-01T02:24:06;33.42;;;14.50;;
47737;SDS011;33502;47.182;27.506;2023-03-01T02:26:45;35.15;;;16.05;;
47737;SDS011;33502;47.182;27.506;2023-03-01T02:29:14;33.65;;;15.82;;
47737;SDS011;33502;47.182;27.506;2023-03-01T02:31:39;36.40;;;17.08;;
47737;SDS011;33502;47.182;27.506;2023-03-01T02:34:14;40.00;;;18.15;;
47737;SDS011;33502;47.182;27.506;2023-03-01T02:36:44;42.08;;;16.50;;
47737;SDS011;33502;47.182;27.506;2023-03-01T02:39:24;37.88;;;16.27;;
47737;SDS011;33502;47.182;27.506;2023-03-01T02:41:53;34.92;;;16.52;;
47737;SDS011;33502;47.182;27.506;2023-03-01T02:44:22;35.45;;;16.25;;
47737;SDS011;33502;47.182;27.506;2023-03-01T02:46:53;40.90;;;17.38;;
47737;SDS011;33502;47.182;27.506;2023-03-01T02:49:28;36.15;;;15.95;;
47737;SDS011;33502;47.182;27.506;2023-03-01T02:57:50;35.83;;;17.45;;
47737;SDS011;33502;47.182;27.506;2023-03-01T03:00:19;36.88;;;15.85;;
47737;SDS011;33502;47.182;27.506;2023-03-01T03:02:48;39.88;;;17.30;;
47737;SDS011;33502;47.182;27.506;2023-03-01T03:05:21;35.55;;;17.40;;
47737;SDS011;33502;47.182;27.506;2023-03-01T03:07:56;34.90;;;16.95;;
47737;SDS011;33502;47.182;27.506;2023-03-01T03:10:25;39.60;;;17.65;;
47737;SDS011;33502;47.182;27.506;2023-03-01T03:12:55;39.38;;;17.73;;
47737;SDS011;33502;47.182;27.506;2023-03-01T03:15:23;35.08;;;17.92;;
47737;SDS011;33502;47.182;27.506;2023-03-01T03:17:51;36.60;;;17.52;;
47737;SDS011;33502;47.182;27.506;2023-03-01T03:20:18;42.33;;;18.90;;
47737;SDS011;33502;47.182;27.506;2023-03-01T03:22:50;39.17;;;18.90;;
47737;SDS011;33502;47.182;27.506;2023-03-01T03:25:17;41.95;;;19.48;;
47737;SDS011;33502;47.182;27.506;2023-03-01T03:27:45;43.22;;;20.65;;
47737;SDS011;33502;47.182;27.506;2023-03-01T03:30:13;43.13;;;19.30;;
47737;SDS011;33502;47.182;27.506;2023-03-01T03:32:41;41.88;;;19.27;;
47737;SDS011;33502;47.182;27.506;2023-03-01T03:35:22;40.45;;;19.40;;
47737;SDS011;33502;47.182;27.506;2023-03-01T03:37:50;37.22;;;18.90;;
47737;SDS011;33502;47.182;27.506;2023-03-01T03:40:38;42.63;;;19.38;;
47737;SDS011;33502;47.182;27.506;2023-03-01T03:43:06;43.85;;;19.63;;
47737;SDS011;33502;47.182;27.506;2023-03-01T03:45:34;40.70;;;19.02;;
47737;SDS011;33502;47.182;27.506;2023-03-01T03:48:01;39.67;;;18.90;;
47737;SDS011;33502;47.182;27.506;2023-03-01T03:50:28;45.55;;;22.05;;
47737;SDS011;33502;47.182;27.506;2023-03-01T03:52:54;44.38;;;19.70;;
47737;SDS011;33502;47.182;27.506;2023-03-01T03:55:20;43.90;;;19.75;;
47737;SDS011;33502;47.182;27.506;2023-03-01T03:57:46;37.97;;;20.23;;
47737;SDS011;33502;47.182;27.506;2023-03-01T04:00:18;39.42;;;18.55;;
47737;SDS011;33502;47.182;27.506;2023-03-01T04:02:45;42.13;;;19.73;;
47737;SDS011;33502;47.182;27.506;2023-03-01T04:05:13;43.58;;;19.35;;
47737;SDS011;33502;47.182;27.506;2023-03-01T04:07:40;40.60;;;20.58;;
47737;SDS011;33502;47.182;27.506;2023-03-01T04:10:17;45.72;;;21.02;;
47737;SDS011;33502;47.182;27.506;2023-03-01T04:12:43;47.58;;;20.70;;
47737;SDS011;33502;47.182;27.506;2023-03-01T04:15:10;51.00;;;23.30;;
47737;SDS011;33502;47.182;27.506;2023-03-01T04:17:40;47.42;;;22.83;;
47737;SDS011;33502;47.182;27.506;2023-03-01T04:20:08;51.67;;;24.30;;
47737;SDS011;33502;47.182;27.506;2023-03-01T04:22:39;48.10;;;23.38;;
47737;SDS011;33502;47.182;27.506;2023-03-01T04:25:06;47.65;;;21.35;;
47737;SDS011;33502;47.182;27.506;2023-03-01T04:27:33;49.60;;;22.25;;
47737;SDS011;33502;47.182;27.506;2023-03-01T04:30:00;50.28;;;22.27;;
47737;SDS011;33502;47.182;27.506;2023-03-01T04:32:26;45.83;;;21.27;;
47737;SDS011;33502;47.182;27.506;2023-03-01T04:34:52;48.08;;;21.33;;
47737;SDS011;33502;47.182;27.506;2023-03-01T04:37:18;56.63;;;22.63;;
47737;SDS011;33502;47.182;27.506;2023-03-01T04:39:44;54.05;;;23.23;;
47737;SDS011;33502;47.182;27.506;2023-03-01T04:42:13;57.65;;;23.90;;
47737;SDS011;33502;47.182;27.506;2023-03-01T04:44:39;59.08;;;25.60;;
47737;SDS011;33502;47.182;27.506;2023-03-01T04:47:05;58.25;;;23.73;;
47737;SDS011;33502;47.182;27.506;2023-03-01T04:49:31;60.63;;;25.80;;
47737;SDS011;33502;47.182;27.506;2023-03-01T04:51:57;65.88;;;27.73;;
47737;SDS011;33502;47.182;27.506;2023-03-01T04:54:32;68.15;;;27.92;;
47737;SDS011;33502;47.182;27.506;2023-03-01T04:56:59;60.72;;;25.58;;
47737;SDS011;33502;47.182;27.506;2023-03-01T04:59:26;75.88;;;27.73;;
47737;SDS011;33502;47.182;27.506;2023-03-01T05:01:53;69.80;;;28.65;;
47737;SDS011;33502;47.182;27.506;2023-03-01T05:04:25;70.45;;;27.90;;
47737;SDS011;33502;47.182;27.506;2023-03-01T05:06:51;71.80;;;29.92;;
47737;SDS011;33502;47.182;27.506;2023-03-01T05:09:18;74.38;;;28.67;;
47737;SDS011;33502;47.182;27.506;2023-03-01T05:11:44;69.22;;;27.80;;
47737;SDS011;33502;47.182;27.506;2023-03-01T05:14:10;62.70;;;25.45;;
47737;SDS011;33502;47.182;27.506;2023-03-01T05:16:36;61.03;;;25.77;;
47737;SDS011;33502;47.182;27.506;2023-03-01T05:19:03;64.10;;;25.88;;
47737;SDS011;33502;47.182;27.506;2023-03-01T05:21:41;59.20;;;26.65;;
47737;SDS011;33502;47.182;27.506;2023-03-01T05:24:26;55.75;;;24.65;;
47737;SDS011;33502;47.182;27.506;2023-03-01T05:26:53;55.42;;;23.00;;
47737;SDS011;33502;47.182;27.506;2023-03-01T05:29:19;57.28;;;25.75;;
47737;SDS011;33502;47.182;27.506;2023-03-01T05:31:51;70.97;;;30.90;;
47737;SDS011;33502;47.182;27.506;2023-03-01T05:34:19;75.03;;;30.33;;
47737;SDS011;33502;47.182;27.506;2023-03-01T05:36:48;63.97;;;29.08;;
47737;SDS011;33502;47.182;27.506;2023-03-01T05:39:22;48.95;;;23.95;;
47737;SDS011;33502;47.182;27.506;2023-03-01T05:41:56;56.97;;;24.33;;
47737;SDS011;33502;47.182;27.506;2023-03-01T05:44:23;47.25;;;22.42;;
47737;SDS011;33502;47.182;27.506;2023-03-01T05:46:50;48.08;;;23.80;;
47737;SDS011;33502;47.182;27.506;2023-03-01T05:49:17;47.28;;;22.27;;
47737;SDS011;33502;47.182;27.506;2023-03-01T05:51:43;50.67;;;22.70;;
47737;SDS011;33502;47.182;27.506;2023-03-01T05:54:14;47.92;;;22.65;;
47737;SDS011;33502;47.182;27.506;2023-03-01T05:56:40;52.70;;;20.52;;
47737;SDS011;33502;47.182;27.506;2023-03-01T05:59:06;54.08;;;23.63;;
47737;SDS011;33502;47.182;27.506;2023-03-01T06:01:32;47.08;;;20.95;;
47737;SDS011;33502;47.182;27.506;2023-03-01T06:03:59;49.33;;;21.58;;
47737;SDS011;33502;47.182;27.506;2023-03-01T06:06:25;51.72;;;22.05;;
47737;SDS011;33502;47.182;27.506;2023-03-01T06:08:51;49.25;;;23.77;;
47737;SDS011;33502;47.182;27.506;2023-03-01T06:11:17;49.88;;;21.83;;
47737;SDS011;33502;47.182;27.506;2023-03-01T06:13:43;53.63;;;23.45;;
47737;SDS011;33502;47.182;27.506;2023-03-01T06:16:10;56.05;;;24.50;;
47737;SDS011;33502;47.182;27.506;2023-03-01T06:18:37;49.05;;;21.67;;
47737;SDS011;33502;47.182;27.506;2023-03-01T06:21:03;46.90;;;22.63;;
47737;SDS011;33502;47.182;27.506;2023-03-01T06:23:30;41.70;;;19.50;;
47737;SDS011;33502;47.182;27.506;2023-03-01T06:25:55;46.45;;;20.10;;
47737;SDS011;33502;47.182;27.506;2023-03-01T06:28:21;47.20;;;21.55;;
47737;SDS011;33502;47.182;27.506;2023-03-01T06:30:48;47.42;;;18.73;;
47737;SDS011;33502;47.182;27.506;2023-03-01T06:33:15;40.95;;;18.23;;
47737;SDS011;33502;47.182;27.506;2023-03-01T06:35:41;46.45;;;20.92;;
47737;SDS011;33502;47.182;27.506;2023-03-01T06:38:06;48.47;;;22.13;;
47737;SDS011;33502;47.182;27.506;2023-03-01T06:40:32;44.67;;;17.70;;
47737;SDS011;33502;47.182;27.506;2023-03-01T06:43:00;46.13;;;19.23;;
47737;SDS011;33502;47.182;27.506;2023-03-01T06:45:26;61.33;;;23.27;;
47737;SDS011;33502;47.182;27.506;2023-03-01T06:47:52;44.22;;;21.73;;
47737;SDS011;33502;47.182;27.506;2023-03-01T06:50:18;50.88;;;21.88;;
47737;SDS011;33502;47.182;27.506;2023-03-01T06:52:44;46.92;;;20.10;;
47737;SDS011;33502;47.182;27.506;2023-03-01T06:55:11;52.95;;;22.02;;
47737;SDS011;33502;47.182;27.506;2023-03-01T06:57:38;51.97;;;22.05;;
47737;SDS011;33502;47.182;27.506;2023-03-01T07:00:04;66.38;;;27.23;;
47737;SDS011;33502;47.182;27.506;2023-03-01T07:02:31;48.78;;;22.95;;
47737;SDS011;33502;47.182;27.506;2023-03-01T07:04:57;86.35;;;37.45;;
47737;SDS011;33502;47.182;27.506;2023-03-01T07:07:23;53.40;;;22.83;;
47737;SDS011;33502;47.182;27.506;2023-03-01T07:09:49;42.38;;;18.80;;
47737;SDS011;33502;47.182;27.506;2023-03-01T07:12:15;65.38;;;30.75;;
47737;SDS011;33502;47.182;27.506;2023-03-01T07:14:41;45.80;;;20.83;;
47737;SDS011;33502;47.182;27.506;2023-03-01T07:17:09;61.95;;;29.50;;
47737;SDS011;33502;47.182;27.506;2023-03-01T07:19:34;43.60;;;21.50;;
47737;SDS011;33502;47.182;27.506;2023-03-01T07:22:00;64.90;;;27.25;;
47737;SDS011;33502;47.182;27.506;2023-03-01T07:24:26;112.03;;;48.22;;
47737;SDS011;33502;47.182;27.506;2023-03-01T07:26:52;68.85;;;31.88;;
47737;SDS011;33502;47.182;27.506;2023-03-01T07:29:18;42.90;;;20.23;;
47737;SDS011;33502;47.182;27.506;2023-03-01T07:31:44;21.20;;;12.85;;
47737;SDS011;33502;47.182;27.506;2023-03-01T07:34:11;43.75;;;21.40;;
47737;SDS011;33502;47.182;27.506;2023-03-01T07:36:37;45.78;;;20.38;;
47737;SDS011;33502;47.182;27.506;2023-03-01T07:39:04;42.72;;;18.55;;
47737;SDS011;33502;47.182;27.506;2023-03-01T07:41:30;48.78;;;22.55;;
47737;SDS011;33502;47.182;27.506;2023-03-01T07:43:56;40.53;;;17.58;;
47737;SDS011;33502;47.182;27.506;2023-03-01T07:46:22;47.03;;;19.55;;
47737;SDS011;33502;47.182;27.506;2023-03-01T07:48:48;40.05;;;19.83;;
47737;SDS011;33502;47.182;27.506;2023-03-01T07:51:13;41.92;;;19.17;;
47737;SDS011;33502;47.182;27.506;2023-03-01T07:53:39;45.63;;;18.95;;
47737;SDS011;33502;47.182;27.506;2023-03-01T07:56:09;39.60;;;19.52;;
47737;SDS011;33502;47.182;27.506;2023-03-01T07:58:37;42.23;;;20.33;;
47737;SDS011;33502;47.182;27.506;2023-03-01T08:01:05;41.83;;;20.70;;
47737;SDS011;33502;47.182;27.506;2023-03-01T08:03:32;35.60;;;15.30;;
47737;SDS011;33502;47.182;27.506;2023-03-01T08:06:07;34.55;;;17.67;;
47737;SDS011;33502;47.182;27.506;2023-03-01T08:08:34;39.80;;;18.73;;
47737;SDS011;33502;47.182;27.506;2023-03-01T08:11:01;36.50;;;17.95;;
47737;SDS011;33502;47.182;27.506;2023-03-01T08:13:28;45.67;;;20.95;;
47737;SDS011;33502;47.182;27.506;2023-03-01T08:15:54;40.85;;;20.38;;
47737;SDS011;33502;47.182;27.506;2023-03-01T08:18:25;35.92;;;18.55;;
47737;SDS011;33502;47.182;27.506;2023-03-01T08:20:51;33.95;;;16.73;;
47737;SDS011;33502;47.182;27.506;2023-03-01T08:23:16;34.95;;;17.55;;
47737;SDS011;33502;47.182;27.506;2023-03-01T08:25:42;40.38;;;18.80;;
47737;SDS011;33502;47.182;27.506;2023-03-01T08:28:08;33.60;;;17.88;;
47737;SDS011;33502;47.182;27.506;2023-03-01T08:30:33;39.25;;;18.73;;
47737;SDS011;33502;47.182;27.506;2023-03-01T08:32:59;36.35;;;17.25;;
47737;SDS011;33502;47.182;27.506;2023-03-01T08:35:25;32.92;;;16.45;;
47737;SDS011;33502;47.182;27.506;2023-03-01T08:37:51;32.63;;;15.75;;
47737;SDS011;33502;47.182;27.506;2023-03-01T08:40:17;35.85;;;18.10;;
47737;SDS011;33502;47.182;27.506;2023-03-01T08:42:42;93.57;;;35.03;;
47737;SDS011;33502;47.182;27.506;2023-03-01T08:45:09;43.25;;;20.25;;
47737;SDS011;33502;47.182;27.506;2023-03-01T08:47:36;49.67;;;26.60;;
47737;SDS011;33502;47.182;27.506;2023-03-01T08:50:02;59.55;;;30.48;;
47737;SDS011;33502;47.182;27.506;2023-03-01T08:52:29;60.38;;;30.23;;
47737;SDS011;33502;47.182;27.506;2023-03-01T08:54:55;47.67;;;21.38;;
47737;SDS011;33502;47.182;27.506;2023-03-01T08:57:21;35.17;;;16.70;;
47737;SDS011;33502;47.182;27.506;2023-03-01T08:59:47;36.05;;;15.48;;
47737;SDS011;33502;47.182;27.506;2023-03-01T09:02:14;50.00;;;24.48;;
47737;SDS011;33502;47.182;27.506;2023-03-01T09:04:42;42.95;;;20.65;;
47737;SDS011;33502;47.182;27.506;2023-03-01T09:07:08;29.65;;;15.60;;
47737;SDS011;33502;47.182;27.506;2023-03-01T09:09:34;29.88;;;15.38;;
47737;SDS011;33502;47.182;27.506;2023-03-01T09:12:00;25.38;;;13.75;;
47737;SDS011;33502;47.182;27.506;2023-03-01T09:14:26;25.15;;;13.77;;
47737;SDS011;33502;47.182;27.506;2023-03-01T09:16:53;33.53;;;17.80;;
47737;SDS011;33502;47.182;27.506;2023-03-01T09:19:18;35.78;;;16.17;;
47737;SDS011;33502;47.182;27.506;2023-03-01T09:21:44;37.97;;;18.25;;
47737;SDS011;33502;47.182;27.506;2023-03-01T09:24:18;28.67;;;14.52;;
47737;SDS011;33502;47.182;27.506;2023-03-01T09:26:47;18.65;;;9.98;;
47737;SDS011;33502;47.182;27.506;2023-03-01T09:29:14;28.92;;;13.82;;
47737;SDS011;33502;47.182;27.506;2023-03-01T09:31:41;29.20;;;13.80;;
47737;SDS011;33502;47.182;27.506;2023-03-01T09:34:08;28.27;;;14.05;;
47737;SDS011;33502;47.182;27.506;2023-03-01T09:36:34;22.95;;;12.82;;
47737;SDS011;33502;47.182;27.506;2023-03-01T09:39:01;23.70;;;11.95;;
47737;SDS011;33502;47.182;27.506;2023-03-01T09:46:56;25.65;;;12.32;;
47737;SDS011;33502;47.182;27.506;2023-03-01T09:49:23;26.95;;;14.50;;
47737;SDS011;33502;47.182;27.506;2023-03-01T09:51:56;28.20;;;12.48;;
47737;SDS011;33502;47.182;27.506;2023-03-01T09:54:30;22.45;;;11.43;;
47737;SDS011;33502;47.182;27.506;2023-03-01T10:02:48;22.80;;;11.65;;
47737;SDS011;33502;47.182;27.506;2023-03-01T10:05:35;19.73;;;11.52;;
47737;SDS011;33502;47.182;27.506;2023-03-01T10:10:43;26.13;;;13.45;;
47737;SDS011;33502;47.182;27.506;2023-03-01T10:13:25;22.63;;;12.15;;
47737;SDS011;33502;47.182;27.506;2023-03-01T10:16:26;21.75;;;12.43;;
47737;SDS011;33502;47.182;27.506;2023-03-01T10:18:59;22.17;;;11.55;;
47737;SDS011;33502;47.182;27.506;2023-03-01T10:21:28;21.60;;;11.20;;
47737;SDS011;33502;47.182;27.506;2023-03-01T10:23:59;19.90;;;8.90;;
47737;SDS011;33502;47.182;27.506;2023-03-01T10:29:09;19.42;;;11.35;;
47737;SDS011;33502;47.182;27.506;2023-03-01T10:31:44;23.05;;;11.57;;
47737;SDS011;33502;47.182;27.506;2023-03-01T10:34:27;17.67;;;9.90;;
47737;SDS011;33502;47.182;27.506;2023-03-01T10:36:56;21.10;;;10.60;;
47737;SDS011;33502;47.182;27.506;2023-03-01T10:39:26;19.25;;;11.63;;
47737;SDS011;33502;47.182;27.506;2023-03-01T10:47:14;20.35;;;9.48;;
47737;SDS011;33502;47.182;27.506;2023-03-01T10:50:04;19.38;;;10.10;;
47737;SDS011;33502;47.182;27.506;2023-03-01T10:57:43;19.10;;;10.15;;
47737;SDS011;33502;47.182;27.506;2023-03-01T11:02:35;23.30;;;10.80;;
47737;SDS011;33502;47.182;27.506;2023-03-01T11:05:13;22.30;;;11.32;;
47737;SDS011;33502;47.182;27.506;2023-03-01T11:07:51;25.17;;;11.55;;
47737;SDS011;33502;47.182;27.506;2023-03-01T11:10:20;24.58;;;13.30;;
47737;SDS011;33502;47.182;27.506;2023-03-01T11:12:48;24.67;;;12.85;;
47737;SDS011;33502;47.182;27.506;2023-03-01T11:15:26;31.75;;;13.73;;
47737;SDS011;33502;47.182;27.506;2023-03-01T11:17:54;17.73;;;9.95;;
47737;SDS011;33502;47.182;27.506;2023-03-01T11:22:53;22.90;;;12.52;;
47737;SDS011;33502;47.182;27.506;2023-03-01T11:25:23;24.65;;;11.70;;
47737;SDS011;33502;47.182;27.506;2023-03-01T11:27:52;18.75;;;9.52;;
47737;SDS011;33502;47.182;27.506;2023-03-01T11:30:29;23.33;;;12.85;;
47737;SDS011;33502;47.182;27.506;2023-03-01T11:35:45;21.13;;;12.82;;
47737;SDS011;33502;47.182;27.506;2023-03-01T11:43:39;22.88;;;10.55;;
47737;SDS011;33502;47.182;27.506;2023-03-01T11:49:17;16.77;;;9.38;;
47737;SDS011;33502;47.182;27.506;2023-03-01T12:34:11;24.52;;;13.85;;
47737;SDS011;33502;47.182;27.506;2023-03-01T12:50:34;23.98;;;13.68;;
47737;SDS011;33502;47.182;27.506;2023-03-01T12:52:55;20.55;;;11.77;;
47737;SDS011;33502;47.182;27.506;2023-03-01T12:55:25;18.45;;;9.55;;
47737;SDS011;33502;47.182;27.506;2023-03-01T13:06:19;18.33;;;10.15;;
47737;SDS011;33502;47.182;27.506;2023-03-01T13:08:58;20.13;;;10.63;;
47737;SDS011;33502;47.182;27.506;2023-03-01T13:11:41;19.55;;;11.50;;
47737;SDS011;33502;47.182;27.506;2023-03-01T13:16:46;17.00;;;10.95;;
47737;SDS011;33502;47.182;27.506;2023-03-01T13:19:20;16.88;;;11.27;;
47737;SDS011;33502;47.182;27.506;2023-03-01T13:21:48;20.73;;;11.17;;
47737;SDS011;33502;47.182;27.506;2023-03-01T13:32:54;17.58;;;10.27;;
47737;SDS011;33502;47.182;27.506;2023-03-01T13:35:51;16.23;;;9.23;;
47737;SDS011;33502;47.182;27.506;2023-03-01T13:41:02;19.83;;;11.98;;
47737;SDS011;33502;47.182;27.506;2023-03-01T13:43:36;26.05;;;11.27;;
47737;SDS011;33502;47.182;27.506;2023-03-01T13:46:22;23.33;;;11.20;;
47737;SDS011;33502;47.182;27.506;2023-03-01T13:48:50;17.40;;;10.90;;
47737;SDS011;33502;47.182;27.506;2023-03-01T13:51:23;12.70;;;8.02;;
47737;SDS011;33502;47.182;27.506;2023-03-01T13:53:51;17.38;;;10.60;;
47737;SDS011;33502;47.182;27.506;2023-03-01T13:56:20;23.40;;;10.93;;
47737;SDS011;33502;47.182;27.506;2023-03-01T13:58:55;16.95;;;9.10;;
47737;SDS011;33502;47.182;27.506;2023-03-01T14:01:29;21.98;;;13.88;;
47737;SDS011;33502;47.182;27.506;2023-03-01T14:06:24;21.35;;;10.63;;
47737;SDS011;33502;47.182;27.506;2023-03-01T14:09:08;27.13;;;13.68;;
47737;SDS011;33502;47.182;27.506;2023-03-01T14:19:42;22.50;;;11.95;;
47737;SDS011;33502;47.182;27.506;2023-03-01T14:22:24;22.77;;;10.57;;
47737;SDS011;33502;47.182;27.506;2023-03-01T14:25:00;16.98;;;11.07;;
47737;SDS011;33502;47.182;27.506;2023-03-01T14:27:38;18.75;;;11.35;;
47737;SDS011;33502;47.182;27.506;2023-03-01T14:32:57;17.50;;;11.02;;
47737;SDS011;33502;47.182;27.506;2023-03-01T14:35:31;19.35;;;11.25;;
47737;SDS011;33502;47.182;27.506;2023-03-01T14:37:59;19.77;;;11.23;;
47737;SDS011;33502;47.182;27.506;2023-03-01T14:40:33;20.88;;;11.55;;
47737;SDS011;33502;47.182;27.506;2023-03-01T14:43:01;26.25;;;12.35;;
47737;SDS011;33502;47.182;27.506;2023-03-01T14:45:46;24.52;;;11.95;;
47737;SDS011;33502;47.182;27.506;2023-03-01T14:48:14;20.75;;;11.55;;
47737;SDS011;33502;47.182;27.506;2023-03-01T14:50:41;21.58;;;12.35;;
47737;SDS011;33502;47.182;27.506;2023-03-01T14:53:20;19.63;;;12.95;;
47737;SDS011;33502;47.182;27.506;2023-03-01T14:55:56;25.23;;;12.60;;
47737;SDS011;33502;47.182;27.506;2023-03-01T14:58:31;22.80;;;12.52;;
47737;SDS011;33502;47.182;27.506;2023-03-01T15:01:03;21.05;;;12.38;;
47737;SDS011;33502;47.182;27.506;2023-03-01T15:06:09;24.63;;;13.68;;
47737;SDS011;33502;47.182;27.506;2023-03-01T15:08:44;23.52;;;14.20;;
47737;SDS011;33502;47.182;27.506;2023-03-01T15:11:20;21.92;;;12.68;;
47737;SDS011;33502;47.182;27.506;2023-03-01T15:13:48;21.63;;;12.35;;
47737;SDS011;33502;47.182;27.506;2023-03-01T15:16:15;24.38;;;13.75;;
47737;SDS011;33502;47.182;27.506;2023-03-01T15:18:45;19.77;;;11.18;;
47737;SDS011;33502;47.182;27.506;2023-03-01T15:21:34;26.08;;;12.65;;
47737;SDS011;33502;47.182;27.506;2023-03-01T15:29:26;28.33;;;14.05;;
47737;SDS011;33502;47.182;27.506;2023-03-01T15:32:00;24.90;;;14.93;;
47737;SDS011;33502;47.182;27.506;2023-03-01T15:34:53;24.58;;;13.38;;
47737;SDS011;33502;47.182;27.506;2023-03-01T15:43:36;30.55;;;16.60;;
47737;SDS011;33502;47.182;27.506;2023-03-01T15:46:04;28.25;;;16.48;;
47737;SDS011;33502;47.182;27.506;2023-03-01T15:48:30;23.88;;;14.65;;
47737;SDS011;33502;47.182;27.506;2023-03-01T15:50:56;27.83;;;15.95;;
47737;SDS011;33502;47.182;27.506;2023-03-01T15:53:24;26.63;;;15.20;;
47737;SDS011;33502;47.182;27.506;2023-03-01T15:55:53;25.02;;;15.20;;
47737;SDS011;33502;47.182;27.506;2023-03-01T15:58:24;29.98;;;15.43;;
47737;SDS011;33502;47.182;27.506;2023-03-01T16:00:51;28.50;;;16.33;;
47737;SDS011;33502;47.182;27.506;2023-03-01T16:03:21;27.33;;;15.25;;
47737;SDS011;33502;47.182;27.506;2023-03-01T16:05:48;29.42;;;16.70;;
47737;SDS011;33502;47.182;27.506;2023-03-01T16:08:15;31.92;;;16.83;;
47737;SDS011;33502;47.182;27.506;2023-03-01T16:10:41;30.88;;;16.67;;
47737;SDS011;33502;47.182;27.506;2023-03-01T16:13:11;32.10;;;16.77;;
47737;SDS011;33502;47.182;27.506;2023-03-01T16:15:37;33.60;;;18.38;;
47737;SDS011;33502;47.182;27.506;2023-03-01T16:18:04;29.30;;;16.67;;
47737;SDS011;33502;47.182;27.506;2023-03-01T16:20:31;32.53;;;18.67;;
47737;SDS011;33502;47.182;27.506;2023-03-01T16:22:58;35.63;;;18.40;;
47737;SDS011;33502;47.182;27.506;2023-03-01T16:25:27;31.88;;;17.65;;
47737;SDS011;33502;47.182;27.506;2023-03-01T16:27:54;34.03;;;18.50;;
47737;SDS011;33502;47.182;27.506;2023-03-01T16:30:21;34.90;;;19.00;;
47737;SDS011;33502;47.182;27.506;2023-03-01T16:32:48;35.92;;;18.33;;
47737;SDS011;33502;47.182;27.506;2023-03-01T16:35:16;36.25;;;18.75;;
47737;SDS011;33502;47.182;27.506;2023-03-01T16:37:44;35.55;;;20.45;;
47737;SDS011;33502;47.182;27.506;2023-03-01T16:40:21;34.28;;;18.70;;
47737;SDS011;33502;47.182;27.506;2023-03-01T16:42:48;38.35;;;17.65;;
47737;SDS011;33502;47.182;27.506;2023-03-01T16:45:15;36.50;;;18.40;;
47737;SDS011;33502;47.182;27.506;2023-03-01T16:47:41;39.67;;;19.40;;
47737;SDS011;33502;47.182;27.506;2023-03-01T16:50:08;41.13;;;20.48;;
47737;SDS011;33502;47.182;27.506;2023-03-01T16:52:34;36.63;;;20.75;;
47737;SDS011;33502;47.182;27.506;2023-03-01T16:55:01;39.90;;;19.50;;
47737;SDS011;33502;47.182;27.506;2023-03-01T16:57:29;40.58;;;19.33;;
47737;SDS011;33502;47.182;27.506;2023-03-01T16:59:55;50.95;;;24.98;;
47737;SDS011;33502;47.182;27.506;2023-03-01T17:02:21;43.80;;;22.38;;
47737;SDS011;33502;47.182;27.506;2023-03-01T17:04:54;45.72;;;23.25;;
47737;SDS011;33502;47.182;27.506;2023-03-01T17:07:20;51.40;;;24.75;;